Earlton, Earlton (Timiskaming Regional) Airport (CYXR)

NameEarlton (Timiskaming Regional) Airport
CityEarlton
CountryCanada
ICAOCYXR
IATAYXR
Altitude244 m
CoordinatesGoogle Map
Live Air TrafficLiveATC.net
METARCYXR 130700Z AUTO 10010KT 9SM OVC008 M10/M10 A3014 RMK ICG INTMT SLP227
2018-12-13 07:00:00 Wind: East (100°) 5.14 m/s - Visibility: 14484.06 m - Temperature: -10 °C - Dew point: -10 °C - Humidity: 100% - Pressure: 1020.66 hPa

Sorry, no flights used the airport in this database.